createdAt,value
2018-12-02T00:01:06.308Z,2.3
2018-12-02T00:06:29.084Z,2.4
2018-12-02T00:11:51.752Z,2.5
2018-12-02T00:17:14.539Z,2.6
2018-12-02T00:22:37.184Z,2.7
2018-12-02T00:27:59.969Z,2.6
2018-12-02T00:33:22.612Z,2.4
2018-12-02T00:38:45.292Z,2.6
2018-12-02T00:44:07.949Z,2.6
2018-12-02T00:49:30.614Z,2.6
2018-12-02T00:54:53.358Z,2.7
2018-12-02T01:00:15.995Z,2.4
2018-12-02T01:05:38.665Z,2.2
2018-12-02T01:11:01.303Z,2.4
2018-12-02T01:16:24.826Z,2.5
2018-12-02T01:21:48.314Z,2.2
2018-12-02T01:27:11.235Z,2.4
2018-12-02T01:32:34.955Z,2.3
2018-12-02T01:37:58.375Z,2.6
2018-12-02T01:43:21.107Z,2.2
2018-12-02T01:48:43.803Z,2.3
2018-12-02T01:54:06.591Z,2.3
2018-12-02T01:59:30.191Z,2.3
2018-12-02T02:04:53.016Z,2.2
2018-12-02T02:10:15.680Z,1.9
2018-12-02T02:15:38.369Z,2.1
2018-12-02T02:21:01.076Z,2
2018-12-02T02:26:24.435Z,2
2018-12-02T02:31:47.191Z,2
2018-12-02T02:37:10.448Z,2.1
2018-12-02T02:42:34.499Z,2
2018-12-02T02:47:57.166Z,1.9
2018-12-02T02:53:20.460Z,2.1
2018-12-02T02:58:45.088Z,1.9
2018-12-02T03:04:07.857Z,1.8
2018-12-02T03:09:30.564Z,2
2018-12-02T03:14:53.308Z,1.7
2018-12-02T03:20:15.980Z,1.9
2018-12-02T03:25:39.596Z,1.7
2018-12-02T03:31:02.223Z,1.8
2018-12-02T03:36:24.942Z,1.7
2018-12-02T03:41:47.986Z,1.6
2018-12-02T03:47:10.598Z,1.6
2018-12-02T03:52:34.201Z,1.7
2018-12-02T03:57:56.834Z,1.6
2018-12-02T04:03:19.713Z,1.7
2018-12-02T04:08:42.427Z,1.9
2018-12-02T04:14:05.425Z,2.2
2018-12-02T04:19:28.541Z,2.5
2018-12-02T04:24:51.152Z,2.5
2018-12-02T04:30:14.897Z,2.8
2018-12-02T04:35:37.521Z,2.6
2018-12-02T04:41:00.139Z,3.1
2018-12-02T04:46:22.749Z,2.8
2018-12-02T04:51:45.429Z,2.7
2018-12-02T04:57:08.813Z,2.8
2018-12-02T05:02:32.193Z,2.7
2018-12-02T05:07:54.834Z,2.6
2018-12-02T05:13:17.468Z,2.5
2018-12-02T05:18:40.132Z,2.8
2018-12-02T05:24:02.731Z,2.5
2018-12-02T05:29:25.452Z,2.2
2018-12-02T05:34:48.201Z,2.4
2018-12-02T05:40:10.945Z,2.5
2018-12-02T05:45:33.557Z,2.3
2018-12-02T05:50:56.386Z,2.3
2018-12-02T05:56:20.019Z,2.2
2018-12-02T06:01:42.662Z,2.3
2018-12-02T06:07:05.290Z,2.3
2018-12-02T06:12:28.065Z,2.2
2018-12-02T06:17:50.734Z,2.2
2018-12-02T06:23:13.408Z,2.1
2018-12-02T06:28:36.188Z,2
2018-12-02T06:33:58.827Z,2
2018-12-02T06:39:21.465Z,2.2
2018-12-02T06:44:45.144Z,1.8
2018-12-02T06:50:07.778Z,2
2018-12-02T06:55:30.643Z,2.1
2018-12-02T07:00:53.222Z,2.2
2018-12-02T07:06:15.879Z,2.2
2018-12-02T07:11:38.799Z,2.7
2018-12-02T07:17:01.649Z,2.5
2018-12-02T07:22:24.680Z,2.2
2018-12-02T07:27:47.374Z,2.2
2018-12-02T07:33:09.972Z,2.4
2018-12-02T07:38:33.405Z,2.2
2018-12-02T07:43:56.051Z,2.4
2018-12-02T07:49:18.657Z,2.4
2018-12-02T07:54:41.488Z,2.1
2018-12-02T08:00:04.252Z,2.1
2018-12-02T08:05:26.889Z,2.1
2018-12-02T08:10:49.618Z,1.8
2018-12-02T08:16:12.319Z,2.1
2018-12-02T08:21:34.969Z,2
2018-12-02T08:26:57.694Z,2.2
2018-12-02T08:32:21.451Z,2.4
2018-12-02T08:37:44.172Z,2.4
2018-12-02T08:43:07.051Z,2.1
2018-12-02T08:48:29.779Z,2.7
2018-12-02T08:53:52.537Z,2.6
2018-12-02T08:59:15.109Z,2.3
2018-12-02T09:04:37.823Z,2.5
2018-12-02T09:10:00.581Z,3.6
2018-12-02T09:15:23.385Z,2.5
2018-12-02T09:20:46.131Z,2.5
2018-12-02T09:26:08.823Z,2.7
2018-12-02T09:31:31.528Z,3.4
2018-12-02T09:36:57.925Z,4.1
2018-12-02T09:42:17.911Z,3.8
2018-12-02T09:47:40.656Z,8.5
2018-12-02T09:53:03.310Z,4.4
2018-12-02T09:58:25.950Z,5.1
2018-12-02T10:03:48.872Z,6.9
2018-12-02T10:09:11.875Z,6.6
2018-12-02T10:14:36.159Z,6.2
2018-12-02T10:19:59.343Z,6.5
2018-12-02T10:25:21.964Z,6.4
2018-12-02T10:30:44.710Z,6.4
2018-12-02T10:36:07.441Z,6
2018-12-02T10:41:30.200Z,6.8
2018-12-02T10:46:52.985Z,8.4
2018-12-02T10:52:15.645Z,8.4
2018-12-02T10:57:38.368Z,9.5
2018-12-02T11:03:01.297Z,10.1
2018-12-02T11:08:23.976Z,10.8
2018-12-02T11:13:47.029Z,11.5
2018-12-02T11:19:09.649Z,11.8
2018-12-02T11:24:33.236Z,12.8
2018-12-02T11:29:56.001Z,12.8
2018-12-02T11:35:18.627Z,12.9
2018-12-02T11:40:41.430Z,12.9
2018-12-02T11:46:04.768Z,13.4
2018-12-02T11:51:27.450Z,13.3
2018-12-02T11:56:50.999Z,12.5
2018-12-02T12:02:13.791Z,12.5
2018-12-02T12:07:36.473Z,12.4
2018-12-02T12:12:59.117Z,12.7
2018-12-02T12:18:22.822Z,12
2018-12-02T12:23:45.494Z,11.7
2018-12-02T12:29:08.154Z,11.6
2018-12-02T12:34:30.844Z,10.8
2018-12-02T12:39:53.470Z,10.1
2018-12-02T12:45:16.950Z,10.7
2018-12-02T12:50:39.545Z,9.9
2018-12-02T12:56:02.243Z,9
2018-12-02T13:01:24.915Z,8.5
2018-12-02T13:06:47.528Z,9.9
2018-12-02T13:12:10.349Z,9
2018-12-02T13:17:33.514Z,7.9
2018-12-02T13:22:56.189Z,7.3
2018-12-02T13:28:18.917Z,6.8
2018-12-02T13:33:41.624Z,7.5
2018-12-02T13:39:04.310Z,6.3
2018-12-02T13:44:27.102Z,5.4
2018-12-02T13:49:50.025Z,6.4
2018-12-02T13:55:12.664Z,5.9
2018-12-02T14:00:35.360Z,5.3
2018-12-02T14:05:58.035Z,4.5
2018-12-02T14:11:20.718Z,4.4
2018-12-02T14:16:43.647Z,5
2018-12-02T14:22:06.455Z,5.3
2018-12-02T14:27:29.934Z,5.8
2018-12-02T14:32:52.609Z,6.5
2018-12-02T14:38:15.280Z,7.4
2018-12-02T14:43:38.433Z,7.8
2018-12-02T14:49:01.081Z,8
2018-12-02T14:54:23.842Z,8.1
2018-12-02T14:59:46.721Z,8.8
2018-12-02T15:05:09.408Z,8.6
2018-12-02T15:10:32.065Z,8.1
2018-12-02T15:15:54.752Z,8.1
2018-12-02T15:21:17.702Z,8
2018-12-02T15:26:40.382Z,8.4
2018-12-02T15:32:03.073Z,8.5
2018-12-02T15:37:25.775Z,7.6
2018-12-02T15:42:49.240Z,6
2018-12-02T15:48:11.953Z,5.5
2018-12-02T15:53:34.795Z,5.2
2018-12-02T15:58:57.624Z,5.5
2018-12-02T16:04:20.370Z,5.1
2018-12-02T16:09:43.361Z,5.1
2018-12-02T16:15:06.136Z,4.2
2018-12-02T16:20:28.799Z,4.6
2018-12-02T16:25:51.638Z,4
2018-12-02T16:31:15.275Z,3.6
2018-12-02T16:36:38.084Z,3.3
2018-12-02T16:42:00.764Z,2.5
2018-12-02T16:47:23.509Z,2.9
2018-12-02T16:52:46.187Z,2.7
2018-12-02T16:58:08.852Z,2.5
2018-12-02T17:03:31.737Z,2.6
2018-12-02T17:08:54.422Z,2.8
2018-12-02T17:14:17.080Z,3
2018-12-02T17:19:43.147Z,3.4
2018-12-02T17:25:05.788Z,3.6
2018-12-02T17:30:28.581Z,3.6
2018-12-02T17:35:52.152Z,3.7
2018-12-02T17:41:14.814Z,3.8
2018-12-02T17:46:37.455Z,4
2018-12-02T17:52:00.081Z,4.1
2018-12-02T17:57:22.700Z,4.1
2018-12-02T18:02:45.459Z,4.7
2018-12-02T18:08:08.113Z,4.1
2018-12-02T18:13:31.105Z,4.2
2018-12-02T18:18:53.746Z,4.1
2018-12-02T18:24:16.354Z,3.5
2018-12-02T18:29:38.975Z,3.7
2018-12-02T18:35:01.848Z,3.2
2018-12-02T18:40:24.462Z,2.7
2018-12-02T18:45:47.184Z,3.1
2018-12-02T18:51:09.954Z,3
2018-12-02T18:56:32.620Z,5.3
2018-12-02T19:01:55.352Z,3.1
2018-12-02T19:07:18.136Z,3.6
2018-12-02T19:12:40.671Z,3.3
2018-12-02T19:18:03.294Z,3.7
2018-12-02T19:23:25.953Z,3.5
2018-12-02T19:28:49.656Z,4.5
2018-12-02T19:34:12.445Z,4.8
2018-12-02T19:39:35.060Z,4.5
2018-12-02T19:44:57.708Z,4.4
2018-12-02T19:50:20.592Z,4.2
2018-12-02T19:55:43.903Z,4
2018-12-02T20:01:06.542Z,4.3
2018-12-02T20:06:29.274Z,5.2
2018-12-02T20:11:53.384Z,4.7
2018-12-02T20:17:16.194Z,4.6
2018-12-02T20:22:39.371Z,4.3
2018-12-02T20:28:02.079Z,4.8
2018-12-02T20:33:24.701Z,5.5
2018-12-02T20:38:47.359Z,5.2
2018-12-02T20:44:10.014Z,5.4
2018-12-02T20:49:32.664Z,5.8
2018-12-02T20:54:55.327Z,6.3
2018-12-02T21:00:18.001Z,6.8
2018-12-02T21:05:40.746Z,6.6
2018-12-02T21:11:03.442Z,7
2018-12-02T21:16:26.078Z,7.4
2018-12-02T21:21:48.843Z,7.6
2018-12-02T21:27:12.464Z,8.6
2018-12-02T21:32:35.189Z,8.8
2018-12-02T21:37:57.965Z,9.3
2018-12-02T21:43:20.681Z,9.3
2018-12-02T21:48:44.124Z,9.7
2018-12-02T21:54:06.888Z,9.6
2018-12-02T21:59:31.742Z,9.9
2018-12-02T22:04:54.469Z,10.1
2018-12-02T22:10:17.256Z,10.7
2018-12-02T22:15:39.940Z,11
2018-12-02T22:21:02.699Z,11.1
2018-12-02T22:26:25.423Z,9.3
2018-12-02T22:31:49.086Z,9.2
2018-12-02T22:37:11.864Z,10.8
2018-12-02T22:42:34.503Z,11.9
2018-12-02T22:47:57.471Z,13.3
2018-12-02T22:53:20.187Z,13.6
2018-12-02T22:58:42.954Z,14.1
2018-12-02T23:04:05.917Z,14.4
2018-12-02T23:09:28.587Z,14.2
2018-12-02T23:14:51.233Z,13.8
2018-12-02T23:20:13.917Z,13
2018-12-02T23:25:36.584Z,13.1
2018-12-02T23:30:59.251Z,13.6
2018-12-02T23:36:21.946Z,13.1
2018-12-02T23:41:44.756Z,13.7
2018-12-02T23:47:07.492Z,13.8
2018-12-02T23:52:30.111Z,13.5
2018-12-02T23:57:52.981Z,15.1
